createdAt,value
2024-05-09T00:00:46.294Z,9.719634
2024-05-09T00:01:46.227Z,9.719344
2024-05-09T00:02:46.135Z,9.719219
2024-05-09T00:03:46.257Z,9.719159
2024-05-09T00:04:46.200Z,9.719208
2024-05-09T00:05:46.147Z,9.719208
2024-05-09T00:06:46.077Z,9.719231
2024-05-09T00:07:46.135Z,9.719229
2024-05-09T00:08:46.067Z,9.719184
2024-05-09T00:09:46.053Z,9.719169
2024-05-09T00:10:46.147Z,9.719281
2024-05-09T00:11:46.100Z,9.719242
2024-05-09T00:12:46.020Z,9.719176
2024-05-09T00:13:46.046Z,9.719216
2024-05-09T00:14:46.011Z,9.719243
2024-05-09T00:15:46.009Z,9.719288
2024-05-09T00:16:46.036Z,9.719331
2024-05-09T00:17:46.072Z,9.719284
2024-05-09T00:18:46.025Z,9.719339
2024-05-09T00:19:46.040Z,9.719321
2024-05-09T00:20:46.016Z,9.719253
2024-05-09T00:21:45.940Z,9.719270
2024-05-09T00:22:46.021Z,9.719270
2024-05-09T00:23:45.905Z,9.719293
2024-05-09T00:24:45.895Z,9.719295
2024-05-09T00:25:46.056Z,9.719258
2024-05-09T00:26:45.899Z,9.719257
2024-05-09T00:27:45.882Z,9.719308
2024-05-09T00:28:45.875Z,9.719281
2024-05-09T00:29:45.891Z,9.719272
2024-05-09T00:30:45.842Z,9.719313
2024-05-09T00:31:45.847Z,9.719289
2024-05-09T00:32:45.908Z,9.719344
2024-05-09T00:33:45.921Z,9.719288
2024-05-09T00:34:45.838Z,9.719204
2024-05-09T00:35:45.811Z,9.719250
2024-05-09T00:36:45.802Z,9.719292
2024-05-09T00:37:45.769Z,9.719255
2024-05-09T00:38:45.773Z,9.719273
2024-05-09T00:39:45.784Z,9.719241
2024-05-09T00:40:45.824Z,9.719289
2024-05-09T00:41:45.798Z,9.719195
2024-05-09T00:42:45.728Z,9.719243
2024-05-09T00:43:45.764Z,9.719278
2024-05-09T00:44:45.726Z,9.719244
2024-05-09T00:45:45.691Z,9.719324
2024-05-09T00:46:45.701Z,9.719287
2024-05-09T00:47:45.738Z,9.719226
2024-05-09T00:48:45.712Z,9.719223
2024-05-09T00:49:45.754Z,9.719235
2024-05-09T00:50:45.787Z,9.719219
2024-05-09T00:51:45.627Z,9.719222
2024-05-09T00:52:45.674Z,9.719215
2024-05-09T00:53:45.650Z,9.719236
2024-05-09T00:54:45.593Z,9.719215
2024-05-09T00:55:46.753Z,9.719140
2024-05-09T00:56:45.596Z,9.719205
2024-05-09T00:57:45.575Z,9.719172
2024-05-09T00:58:45.616Z,9.719192
2024-05-09T00:59:45.548Z,9.719259
2024-05-09T01:00:45.585Z,9.719252
2024-05-09T01:01:45.653Z,9.719229
2024-05-09T01:02:45.630Z,9.719177
2024-05-09T01:03:47.950Z,9.719133
2024-05-09T01:04:46.670Z,9.719103
2024-05-09T01:05:45.513Z,9.719113
2024-05-09T01:06:45.504Z,9.719216
2024-05-09T01:07:45.541Z,9.719184
2024-05-09T01:08:45.549Z,9.719249
2024-05-09T01:09:45.441Z,9.719234
2024-05-09T01:10:48.420Z,9.719196
2024-05-09T01:11:45.483Z,9.718909
2024-05-09T01:12:45.416Z,9.719133
2024-05-09T01:13:45.526Z,9.719281
2024-05-09T01:14:45.410Z,9.719336
2024-05-09T01:15:45.396Z,9.719349
2024-05-09T01:16:45.401Z,9.719248
2024-05-09T01:17:45.645Z,9.719181
2024-05-09T01:18:45.481Z,9.719253
2024-05-09T01:19:45.525Z,9.719201
2024-05-09T01:20:46.443Z,9.719214
2024-05-09T01:21:45.328Z,9.719137
2024-05-09T01:22:45.366Z,9.719255
2024-05-09T01:23:45.360Z,9.719151
2024-05-09T01:24:45.327Z,9.719253
2024-05-09T01:25:46.297Z,9.719217
2024-05-09T01:26:45.282Z,9.719224
2024-05-09T01:27:45.262Z,9.719318
2024-05-09T01:28:45.314Z,9.719214
2024-05-09T01:29:45.252Z,9.719218
2024-05-09T01:30:45.285Z,9.719139
2024-05-09T01:31:45.303Z,9.719007
2024-05-09T01:32:45.525Z,9.719127
2024-05-09T01:33:45.424Z,9.719183
2024-05-09T01:34:45.238Z,9.719247
2024-05-09T01:35:45.199Z,9.719309
2024-05-09T01:36:45.193Z,9.719291
2024-05-09T01:37:45.203Z,9.719344
2024-05-09T01:38:45.190Z,9.719327
2024-05-09T01:39:45.153Z,9.719355
2024-05-09T01:40:45.236Z,9.719358
2024-05-09T01:41:45.136Z,9.719431
2024-05-09T01:42:45.139Z,9.719299
2024-05-09T01:43:45.137Z,9.719300
2024-05-09T01:44:45.108Z,9.719188
2024-05-09T01:45:45.099Z,9.719196
2024-05-09T01:46:45.154Z,9.719111
2024-05-09T01:47:45.166Z,9.719144
2024-05-09T01:48:45.201Z,9.719213
2024-05-09T01:49:45.121Z,9.719243
2024-05-09T01:50:45.113Z,9.719269
2024-05-09T01:51:45.024Z,9.719415
2024-05-09T01:52:45.095Z,9.719485
2024-05-09T01:53:45.053Z,9.719299
2024-05-09T01:54:45.030Z,9.719344
2024-05-09T01:55:45.150Z,9.719362
2024-05-09T01:56:44.987Z,9.719382
2024-05-09T01:57:44.967Z,9.719261
2024-05-09T01:58:44.983Z,9.719412
2024-05-09T01:59:44.972Z,9.719419
2024-05-09T02:00:45.009Z,9.719418
2024-05-09T02:01:56.356Z,9.719490
2024-05-09T02:02:46.050Z,9.719447
2024-05-09T02:03:45.194Z,9.719442
2024-05-09T02:04:45.040Z,9.719432
2024-05-09T02:05:45.591Z,9.719369
2024-05-09T02:06:44.886Z,9.719380
2024-05-09T02:07:44.946Z,9.719412
2024-05-09T02:08:44.939Z,9.719351
2024-05-09T02:09:44.845Z,9.719363
2024-05-09T02:10:45.150Z,9.719314
2024-05-09T02:11:44.915Z,9.719291
2024-05-09T02:12:44.842Z,9.719412
2024-05-09T02:13:44.885Z,9.719421
2024-05-09T02:14:44.799Z,9.719419
2024-05-09T02:15:44.884Z,9.719331
2024-05-09T02:16:44.845Z,9.719318
2024-05-09T02:17:45.248Z,9.719360
2024-05-09T02:18:44.901Z,9.719400
2024-05-09T02:19:44.820Z,9.719428
2024-05-09T02:20:44.821Z,9.719350
2024-05-09T02:21:44.779Z,9.719408
2024-05-09T02:22:44.780Z,9.719419
2024-05-09T02:23:44.787Z,9.719302
2024-05-09T02:24:44.695Z,9.719359
2024-05-09T02:25:44.745Z,9.719309
2024-05-09T02:26:44.682Z,9.719316
2024-05-09T02:27:44.691Z,9.719487
2024-05-09T02:28:44.702Z,9.719475
2024-05-09T02:29:44.642Z,9.719263
2024-05-09T02:30:44.638Z,9.718873
2024-05-09T02:31:44.671Z,9.718909
2024-05-09T02:32:44.716Z,9.719010
2024-05-09T02:33:44.782Z,9.719248
2024-05-09T02:34:44.643Z,9.719250
2024-05-09T02:35:44.696Z,9.719310
2024-05-09T02:36:44.586Z,9.719185
2024-05-09T02:37:44.707Z,9.719339
2024-05-09T02:38:44.613Z,9.719263
2024-05-09T02:39:44.542Z,9.719390
2024-05-09T02:40:44.560Z,9.719222
2024-05-09T02:41:44.535Z,9.719071
2024-05-09T02:42:44.514Z,9.719170
2024-05-09T02:43:44.554Z,9.718834
2024-05-09T02:44:44.494Z,9.719136
2024-05-09T02:45:44.488Z,9.719096
2024-05-09T02:46:44.483Z,9.718998
2024-05-09T02:47:44.716Z,9.719057
2024-05-09T02:48:44.540Z,9.719179
2024-05-09T02:49:44.493Z,9.719229
2024-05-09T02:50:44.916Z,9.719161
2024-05-09T02:51:44.438Z,9.719181
2024-05-09T02:52:44.446Z,9.719190
2024-05-09T02:53:44.486Z,9.719218
2024-05-09T02:54:44.404Z,9.719281
2024-05-09T02:55:44.425Z,9.719216
2024-05-09T02:56:44.381Z,9.719186
2024-05-09T02:57:44.371Z,9.719115
2024-05-09T02:58:44.415Z,9.719057
2024-05-09T02:59:44.355Z,9.719204
2024-05-09T03:00:44.407Z,9.719143
2024-05-09T03:01:44.385Z,9.719335
2024-05-09T03:02:44.557Z,9.719250
2024-05-09T03:03:44.432Z,9.719205
2024-05-09T03:04:44.455Z,9.719317
2024-05-09T03:05:44.879Z,9.719197
2024-05-09T03:06:44.281Z,9.719197
2024-05-09T03:07:44.303Z,9.719225
2024-05-09T03:08:44.312Z,9.719273
2024-05-09T03:09:44.452Z,9.719237
2024-05-09T03:10:44.277Z,9.719148
2024-05-09T03:11:44.328Z,9.719052
2024-05-09T03:12:44.255Z,9.719109
2024-05-09T03:13:44.248Z,9.719099
2024-05-09T03:14:44.247Z,9.719048
2024-05-09T03:15:44.220Z,9.719105
2024-05-09T03:16:44.246Z,9.719062
2024-05-09T03:17:44.320Z,9.719285
2024-05-09T03:18:44.296Z,9.719406
2024-05-09T03:19:44.202Z,9.719258
2024-05-09T03:20:44.666Z,9.719072
2024-05-09T03:21:44.153Z,9.718984
2024-05-09T03:22:44.172Z,9.719049
2024-05-09T03:23:44.264Z,9.719135
2024-05-09T03:24:44.095Z,9.719057
2024-05-09T03:25:44.107Z,9.719084
2024-05-09T03:26:44.096Z,9.719105
2024-05-09T03:27:44.079Z,9.719149
2024-05-09T03:28:44.076Z,9.718964
2024-05-09T03:29:44.043Z,9.718980
2024-05-09T03:30:44.037Z,9.719107
2024-05-09T03:31:44.185Z,9.718996
2024-05-09T03:32:44.129Z,9.719005
2024-05-09T03:33:44.246Z,9.718758
2024-05-09T03:34:44.017Z,9.718941
2024-05-09T03:35:43.976Z,9.719057
2024-05-09T03:36:43.978Z,9.719200
2024-05-09T03:37:44.049Z,9.719293
2024-05-09T03:38:44.014Z,9.719331
2024-05-09T03:39:43.937Z,9.719245
2024-05-09T03:40:44.004Z,9.719193
2024-05-09T03:41:43.950Z,9.719199
2024-05-09T03:42:44.919Z,9.719160
2024-05-09T03:43:43.956Z,9.719007
2024-05-09T03:44:43.894Z,9.719137
2024-05-09T03:45:43.908Z,9.719098
2024-05-09T03:46:44.016Z,9.719196
2024-05-09T03:47:44.179Z,9.719218
2024-05-09T03:48:43.913Z,9.719204
2024-05-09T03:49:43.901Z,9.719204
2024-05-09T03:50:43.901Z,9.719112
2024-05-09T03:51:43.868Z,9.719097
2024-05-09T03:52:43.835Z,9.719219
2024-05-09T03:53:43.821Z,9.719184
2024-05-09T03:54:43.796Z,9.719195
2024-05-09T03:55:43.973Z,9.719183
2024-05-09T03:56:43.863Z,9.719151
2024-05-09T03:57:43.771Z,9.719131
2024-05-09T03:58:43.801Z,9.719137
2024-05-09T03:59:43.741Z,9.719080
2024-05-09T04:00:43.764Z,9.719198
2024-05-09T04:01:43.873Z,9.719144
2024-05-09T04:02:43.910Z,9.719152
2024-05-09T04:03:43.839Z,9.719203
2024-05-09T04:04:43.776Z,9.719229
2024-05-09T04:05:44.387Z,9.719123
2024-05-09T04:06:43.697Z,9.719296
2024-05-09T04:07:43.753Z,9.719308
2024-05-09T04:08:43.718Z,9.719390
2024-05-09T04:09:43.664Z,9.719173
2024-05-09T04:10:43.685Z,9.719298
2024-05-09T04:11:43.756Z,9.719316
2024-05-09T04:12:43.620Z,9.719322
2024-05-09T04:13:43.646Z,9.719222
2024-05-09T04:14:43.599Z,9.719272
2024-05-09T04:15:43.593Z,9.719255
2024-05-09T04:16:43.574Z,9.719233
2024-05-09T04:17:43.732Z,9.719356
2024-05-09T04:18:43.624Z,9.719316
2024-05-09T04:19:44.558Z,9.719265
2024-05-09T04:20:43.587Z,9.719304
2024-05-09T04:21:43.551Z,9.719362
2024-05-09T04:22:43.506Z,9.719413
2024-05-09T04:23:43.550Z,9.719332
2024-05-09T04:24:43.506Z,9.719093
2024-05-09T04:25:43.625Z,9.719165
2024-05-09T04:26:43.533Z,9.719136
2024-05-09T04:27:43.512Z,9.719074
2024-05-09T04:28:43.440Z,9.719172
2024-05-09T04:29:43.435Z,9.719293
2024-05-09T04:30:43.739Z,9.719220
2024-05-09T04:31:43.422Z,9.719176
2024-05-09T04:32:43.487Z,9.719267
2024-05-09T04:33:43.481Z,9.719224
2024-05-09T04:34:43.409Z,9.719243
2024-05-09T04:35:43.923Z,9.719213
2024-05-09T04:36:44.623Z,9.719102
2024-05-09T04:37:44.416Z,9.719232
2024-05-09T04:38:44.373Z,9.719335
2024-05-09T04:39:43.343Z,9.719315
2024-05-09T04:40:43.361Z,9.719241
2024-05-09T04:41:43.350Z,9.719156
2024-05-09T04:42:43.304Z,9.719301
2024-05-09T04:43:43.300Z,9.719272
2024-05-09T04:44:43.303Z,9.719123
2024-05-09T04:45:43.274Z,9.719127
2024-05-09T04:46:43.317Z,9.719131
2024-05-09T04:47:43.394Z,9.719153
2024-05-09T04:48:43.579Z,9.719154
2024-05-09T04:49:43.247Z,9.719123
2024-05-09T04:50:43.261Z,9.719153
2024-05-09T04:51:43.244Z,9.719110
2024-05-09T04:52:43.222Z,9.719164
2024-05-09T04:53:43.315Z,9.719187
2024-05-09T04:54:43.192Z,9.719241
2024-05-09T04:55:43.180Z,9.719254
2024-05-09T04:56:43.224Z,9.719183
2024-05-09T04:57:43.194Z,9.719082
2024-05-09T04:58:43.161Z,9.719041
2024-05-09T04:59:43.143Z,9.719086
2024-05-09T05:00:43.223Z,9.719153
2024-05-09T05:01:43.147Z,9.719081
2024-05-09T05:02:43.273Z,9.719100
2024-05-09T05:03:43.258Z,9.719199
2024-05-09T05:04:43.184Z,9.719293
2024-05-09T05:05:44.093Z,9.719216
2024-05-09T05:06:43.072Z,9.719172
2024-05-09T05:07:43.051Z,9.719310
2024-05-09T05:08:43.063Z,9.719250
2024-05-09T05:09:43.033Z,9.719216
2024-05-09T05:10:43.088Z,9.719225
2024-05-09T05:11:43.136Z,9.719200
2024-05-09T05:12:43.022Z,9.719108
2024-05-09T05:13:43.027Z,9.719201
2024-05-09T05:14:43.007Z,9.719154
2024-05-09T05:15:42.983Z,9.719217
2024-05-09T05:16:42.965Z,9.719089
2024-05-09T05:17:43.126Z,9.718957
2024-05-09T05:18:43.083Z,9.719152
2024-05-09T05:19:42.982Z,9.719126
2024-05-09T05:20:43.123Z,9.719158
2024-05-09T05:21:42.953Z,9.719214
2024-05-09T05:22:42.911Z,9.719163
2024-05-09T05:23:42.955Z,9.719130
2024-05-09T05:24:42.896Z,9.719101
2024-05-09T05:25:42.896Z,9.719212
2024-05-09T05:26:42.915Z,9.719283
2024-05-09T05:27:42.854Z,9.719329
2024-05-09T05:28:42.876Z,9.719169
2024-05-09T05:29:42.894Z,9.719163
2024-05-09T05:30:42.825Z,9.719023
2024-05-09T05:31:43.897Z,9.719151
2024-05-09T05:32:42.944Z,9.719173
2024-05-09T05:33:42.906Z,9.719168
2024-05-09T05:34:42.794Z,9.719088
2024-05-09T05:35:42.959Z,9.719175
2024-05-09T05:36:42.786Z,9.719260
2024-05-09T05:37:42.766Z,9.719143
2024-05-09T05:38:42.998Z,9.719214
2024-05-09T05:39:42.780Z,9.719217
2024-05-09T05:40:42.819Z,9.719095
2024-05-09T05:41:42.792Z,9.719109
2024-05-09T05:42:42.728Z,9.719139
2024-05-09T05:43:42.728Z,9.719163
2024-05-09T05:44:42.692Z,9.719170
2024-05-09T05:45:42.694Z,9.719216
2024-05-09T05:46:42.678Z,9.719263
2024-05-09T05:47:42.807Z,9.719165
2024-05-09T05:48:42.959Z,9.719177
2024-05-09T05:49:42.678Z,9.719193
2024-05-09T05:50:42.710Z,9.719130
2024-05-09T05:51:42.630Z,9.719185
2024-05-09T05:52:42.613Z,9.719177
2024-05-09T05:53:42.769Z,9.719183
2024-05-09T05:54:42.592Z,9.719283
2024-05-09T05:55:42.621Z,9.719137
2024-05-09T05:56:42.640Z,9.719187
2024-05-09T05:57:42.568Z,9.719249
2024-05-09T05:58:42.574Z,9.719222
2024-05-09T05:59:42.619Z,9.719161
2024-05-09T06:00:43.123Z,9.719217
2024-05-09T06:01:42.538Z,9.719390
2024-05-09T06:02:42.540Z,9.719213
2024-05-09T06:03:42.760Z,9.719311
2024-05-09T06:04:42.571Z,9.719203
2024-05-09T06:05:42.549Z,9.719169
2024-05-09T06:06:42.492Z,9.718952
2024-05-09T06:07:42.478Z,9.718898
2024-05-09T06:08:42.530Z,9.718985
2024-05-09T06:09:42.436Z,9.719248
2024-05-09T06:10:42.781Z,9.719303
2024-05-09T06:11:42.492Z,9.719068
2024-05-09T06:12:43.432Z,9.719086
2024-05-09T06:13:42.407Z,9.719052
2024-05-09T06:14:42.440Z,9.719148
2024-05-09T06:15:42.857Z,9.718991
2024-05-09T06:16:42.377Z,9.718848
2024-05-09T06:17:42.540Z,9.718933
2024-05-09T06:18:42.500Z,9.719043
2024-05-09T06:19:42.398Z,9.719156
2024-05-09T06:20:43.709Z,9.719063
2024-05-09T06:21:42.341Z,9.719106
2024-05-09T06:22:42.337Z,9.719205
2024-05-09T06:23:42.384Z,9.719176
2024-05-09T06:24:42.287Z,9.719198
2024-05-09T06:25:42.671Z,9.719109
2024-05-09T06:26:42.329Z,9.719132
2024-05-09T06:27:42.251Z,9.719233
2024-05-09T06:28:42.248Z,9.719035
2024-05-09T06:29:42.350Z,9.719037
2024-05-09T06:30:43.284Z,9.718951
2024-05-09T06:31:42.234Z,9.719079
2024-05-09T06:32:42.292Z,9.719058
2024-05-09T06:33:42.319Z,9.719026
2024-05-09T06:34:42.320Z,9.719033
2024-05-09T06:35:42.544Z,9.719138
2024-05-09T06:36:42.191Z,9.719079
2024-05-09T06:37:42.162Z,9.719124
2024-05-09T06:38:42.318Z,9.719118
2024-05-09T06:39:42.138Z,9.719144
2024-05-09T06:40:43.628Z,9.719069
2024-05-09T06:41:42.315Z,9.719180
2024-05-09T06:42:42.116Z,9.719192
2024-05-09T06:43:42.103Z,9.719195
2024-05-09T06:44:42.162Z,9.719203
2024-05-09T06:45:42.078Z,9.719157
2024-05-09T06:46:42.199Z,9.719150
2024-05-09T06:47:42.151Z,9.719146
2024-05-09T06:48:42.311Z,9.719130
2024-05-09T06:49:42.055Z,9.719177
2024-05-09T06:50:42.095Z,9.719193
2024-05-09T06:51:42.026Z,9.719140
2024-05-09T06:52:42.067Z,9.719178
2024-05-09T06:53:42.065Z,9.719198
2024-05-09T06:54:42.003Z,9.719246
2024-05-09T06:55:41.986Z,9.719279
2024-05-09T06:56:42.033Z,9.719263
2024-05-09T06:57:43.160Z,9.719223
2024-05-09T06:58:42.964Z,9.719310
2024-05-09T06:59:41.991Z,9.719186
2024-05-09T07:00:42.498Z,9.719136
2024-05-09T07:01:41.939Z,9.719303
2024-05-09T07:02:42.081Z,9.719386
2024-05-09T07:03:42.003Z,9.719295
2024-05-09T07:04:41.957Z,9.719253
2024-05-09T07:05:41.954Z,9.719195
2024-05-09T07:06:42.900Z,9.719251
2024-05-09T07:07:41.875Z,9.719252
2024-05-09T07:08:41.928Z,9.719244
2024-05-09T07:09:41.850Z,9.719102
2024-05-09T07:10:41.867Z,9.719060
2024-05-09T07:11:41.965Z,9.719149
2024-05-09T07:12:41.842Z,9.719305
2024-05-09T07:13:41.845Z,9.719171
2024-05-09T07:14:41.965Z,9.719168
2024-05-09T07:15:41.898Z,9.719185
2024-05-09T07:16:41.794Z,9.719337
2024-05-09T07:17:41.920Z,9.719278
2024-05-09T07:18:41.957Z,9.719210
2024-05-09T07:19:42.754Z,9.719296
2024-05-09T07:20:41.947Z,9.719236
2024-05-09T07:21:41.732Z,9.719088
2024-05-09T07:22:41.742Z,9.718972
2024-05-09T07:23:43.734Z,9.718981
2024-05-09T07:24:41.702Z,9.719091
2024-05-09T07:25:41.941Z,9.718983
2024-05-09T07:26:41.743Z,9.719200
2024-05-09T07:27:41.673Z,9.719222
2024-05-09T07:28:41.717Z,9.719380
2024-05-09T07:29:41.723Z,9.719397
2024-05-09T07:30:41.645Z,9.719255
2024-05-09T07:31:41.655Z,9.719436
2024-05-09T07:32:41.766Z,9.719378
2024-05-09T07:33:41.722Z,9.719481
2024-05-09T07:34:41.673Z,9.719404
2024-05-09T07:35:41.654Z,9.719309
2024-05-09T07:36:41.596Z,9.719232
2024-05-09T07:37:41.576Z,9.719279
2024-05-09T07:38:41.726Z,9.719372
2024-05-09T07:39:41.582Z,9.719346
2024-05-09T07:40:41.584Z,9.719289
2024-05-09T07:41:41.624Z,9.719392
2024-05-09T07:42:41.532Z,9.719307
2024-05-09T07:43:41.520Z,9.719231
2024-05-09T07:44:41.530Z,9.719258
2024-05-09T07:45:50.391Z,9.719198
2024-05-09T07:49:12.442Z,9.719247
2024-05-09T07:51:31.960Z,9.719284
2024-05-09T07:53:34.285Z,9.719174
2024-05-09T07:53:46.934Z,9.719205
2024-05-09T07:54:42.551Z,9.719224
2024-05-09T07:55:41.564Z,9.719207
2024-05-09T07:56:41.759Z,9.719204
2024-05-09T07:57:41.430Z,9.719183
2024-05-09T07:58:41.376Z,9.719233
2024-05-09T07:59:41.368Z,9.719131
2024-05-09T08:00:41.543Z,9.719219
2024-05-09T08:01:41.444Z,9.719128
2024-05-09T08:02:41.367Z,9.719078
2024-05-09T08:03:42.451Z,9.719139
2024-05-09T08:04:41.570Z,9.719249
2024-05-09T08:05:41.477Z,9.719236
2024-05-09T08:06:41.359Z,9.719152
2024-05-09T08:07:41.303Z,9.719091
2024-05-09T08:08:41.277Z,9.719183
2024-05-09T08:09:41.341Z,9.719277
2024-05-09T08:10:41.451Z,9.719270
2024-05-09T08:11:41.264Z,9.719165
2024-05-09T08:12:41.380Z,9.719147
2024-05-09T08:13:41.238Z,9.719069
2024-05-09T08:14:41.236Z,9.719106
2024-05-09T08:15:41.318Z,9.719187
2024-05-09T08:16:41.223Z,9.719186
2024-05-09T08:17:41.306Z,9.719225
2024-05-09T08:18:41.333Z,9.719203
2024-05-09T08:19:41.239Z,9.719290
2024-05-09T08:20:41.170Z,9.719240
2024-05-09T08:21:41.197Z,9.719211
2024-05-09T08:22:41.148Z,9.719205
2024-05-09T08:23:41.142Z,9.719158
2024-05-09T08:24:41.170Z,9.719164
2024-05-09T08:25:41.131Z,9.719162
2024-05-09T08:26:41.093Z,9.719199
2024-05-09T08:27:41.122Z,9.719206
2024-05-09T08:28:41.101Z,9.719185
2024-05-09T08:29:41.129Z,9.719171
2024-05-09T08:30:41.291Z,9.719136
2024-05-09T08:31:41.185Z,9.719205
2024-05-09T08:32:41.116Z,9.719207
2024-05-09T08:33:41.201Z,9.719193
2024-05-09T08:34:41.066Z,9.719245
2024-05-09T08:35:41.017Z,9.719248
2024-05-09T08:36:41.057Z,9.719245
2024-05-09T08:37:41.235Z,9.719199
2024-05-09T08:38:41.005Z,9.719253
2024-05-09T08:39:40.993Z,9.719275
2024-05-09T08:40:41.061Z,9.719242
2024-05-09T08:41:40.967Z,9.719259
2024-05-09T08:42:40.959Z,9.719721
2024-05-09T08:43:42.174Z,9.719797
2024-05-09T08:44:42.165Z,9.719704
2024-05-09T08:45:41.012Z,9.719425
2024-05-09T08:46:40.893Z,9.719225
2024-05-09T08:47:40.934Z,9.719341
2024-05-09T08:48:40.987Z,9.719164
2024-05-09T08:49:41.636Z,9.719328
2024-05-09T08:50:42.083Z,9.719432
2024-05-09T08:51:40.878Z,9.719299
2024-05-09T08:52:40.850Z,9.719337
2024-05-09T08:53:40.843Z,9.719373
2024-05-09T08:54:40.886Z,9.719216
2024-05-09T08:55:43.337Z,9.719205
2024-05-09T08:56:40.812Z,9.719230
2024-05-09T08:57:40.848Z,9.719227
2024-05-09T08:58:40.806Z,9.719132
2024-05-09T08:59:40.782Z,9.719123
2024-05-09T09:00:40.851Z,9.719111
2024-05-09T09:01:41.304Z,9.719240
2024-05-09T09:02:41.852Z,9.719280
2024-05-09T09:03:40.887Z,9.719294
2024-05-09T09:04:40.823Z,9.719322
2024-05-09T09:05:41.067Z,9.719220
2024-05-09T09:06:40.778Z,9.719151
2024-05-09T09:07:40.701Z,9.719290
2024-05-09T09:08:40.713Z,9.719061
2024-05-09T09:09:40.705Z,9.719213
2024-05-09T09:10:40.752Z,9.719295
2024-05-09T09:11:40.709Z,9.719336
2024-05-09T09:12:40.671Z,9.719474
2024-05-09T09:13:41.656Z,9.719408
2024-05-09T09:14:40.666Z,9.719349
2024-05-09T09:15:40.652Z,9.719360
2024-05-09T09:16:40.606Z,9.719349
2024-05-09T09:17:40.673Z,9.719305
2024-05-09T09:18:40.934Z,9.719198
2024-05-09T09:19:40.641Z,9.719192
2024-05-09T09:20:40.637Z,9.719167
2024-05-09T09:21:40.603Z,9.719258
2024-05-09T09:22:40.541Z,9.719240
2024-05-09T09:23:40.533Z,9.719255
2024-05-09T09:24:40.566Z,9.719197
2024-05-09T09:25:40.584Z,9.719253
2024-05-09T09:26:40.508Z,9.719239
2024-05-09T09:27:40.549Z,9.719314
2024-05-09T09:28:40.493Z,9.719550
2024-05-09T09:29:40.505Z,9.719592
2024-05-09T09:30:40.612Z,9.719428
2024-05-09T09:31:40.472Z,9.719289
2024-05-09T09:32:40.487Z,9.719284
2024-05-09T09:33:40.571Z,9.719361
2024-05-09T09:34:40.516Z,9.719285
2024-05-09T09:35:40.658Z,9.719476
2024-05-09T09:36:40.432Z,9.719337
2024-05-09T09:37:40.405Z,9.719475
2024-05-09T09:38:40.394Z,9.719691
2024-05-09T09:39:40.412Z,9.719601
2024-05-09T09:40:44.886Z,9.719604
2024-05-09T09:41:41.365Z,9.719563
2024-05-09T09:42:40.461Z,9.719337
2024-05-09T09:43:40.341Z,9.719274
2024-05-09T09:44:42.218Z,9.719288
2024-05-09T09:45:40.382Z,9.719424
2024-05-09T09:46:40.332Z,9.719425
2024-05-09T09:47:40.462Z,9.719298
2024-05-09T09:48:40.639Z,9.719298
2024-05-09T09:49:40.372Z,9.719298
2024-05-09T09:50:40.305Z,9.719298
2024-05-09T09:51:40.293Z,9.719298
2024-05-09T09:52:40.283Z,9.719298
2024-05-09T09:53:40.255Z,9.719298
2024-05-09T09:54:40.272Z,9.719298
2024-05-09T09:55:40.238Z,9.719373
2024-05-09T09:56:40.231Z,9.719095
2024-05-09T09:57:40.262Z,9.719206
2024-05-09T09:58:40.251Z,9.719351
2024-05-09T09:59:40.207Z,9.719281
2024-05-09T10:00:40.283Z,9.719194
2024-05-09T10:01:40.260Z,9.718975
2024-05-09T10:02:40.195Z,9.719002
2024-05-09T10:03:40.293Z,9.719207
2024-05-09T10:04:40.282Z,9.719297
2024-05-09T10:05:42.194Z,9.719407
2024-05-09T10:06:40.149Z,9.719798
2024-05-09T10:07:40.109Z,9.719727
2024-05-09T10:08:40.135Z,9.719545
2024-05-09T10:09:40.130Z,9.719437
2024-05-09T10:10:40.301Z,9.719508
2024-05-09T10:11:45.379Z,9.719460
2024-05-09T10:12:41.142Z,9.719491
2024-05-09T10:13:40.053Z,9.719586
2024-05-09T10:14:40.071Z,9.719624
2024-05-09T10:15:40.071Z,9.719613
2024-05-09T10:16:40.030Z,9.719550
2024-05-09T10:17:40.103Z,9.719592
2024-05-09T10:18:40.753Z,9.719541
2024-05-09T10:19:40.046Z,9.719621
2024-05-09T10:20:39.995Z,9.719654
2024-05-09T10:21:40.049Z,9.719683
2024-05-09T10:22:39.984Z,9.719519
2024-05-09T10:23:39.983Z,9.719516
2024-05-09T10:24:40.000Z,9.719391
2024-05-09T10:25:39.932Z,9.719259
2024-05-09T10:26:39.946Z,9.719014
2024-05-09T10:27:39.986Z,9.719070
2024-05-09T10:28:39.910Z,9.719174
2024-05-09T10:29:39.921Z,9.719112
2024-05-09T10:30:40.713Z,9.719067
2024-05-09T10:31:40.019Z,9.719171
2024-05-09T10:32:40.026Z,9.719163
2024-05-09T10:33:40.042Z,9.719123
2024-05-09T10:34:39.914Z,9.719108
2024-05-09T10:35:39.858Z,9.719039
2024-05-09T10:36:39.901Z,9.719062
2024-05-09T10:37:39.818Z,9.719118
2024-05-09T10:38:39.806Z,9.719125
2024-05-09T10:39:39.906Z,9.719120
2024-05-09T10:40:39.975Z,9.719156
2024-05-09T10:41:39.794Z,9.719097
2024-05-09T10:42:39.799Z,9.719126
2024-05-09T10:43:39.764Z,9.719131
2024-05-09T10:44:39.746Z,9.719081
2024-05-09T10:45:39.727Z,9.719062
2024-05-09T10:46:39.737Z,9.719012
2024-05-09T10:47:39.807Z,9.719075
2024-05-09T10:48:39.848Z,9.719149
2024-05-09T10:49:39.731Z,9.719047
2024-05-09T10:50:39.680Z,9.719107
2024-05-09T10:51:39.711Z,9.719130
2024-05-09T10:52:39.664Z,9.719109
2024-05-09T10:53:39.681Z,9.719126
2024-05-09T10:54:39.668Z,9.719109
2024-05-09T10:55:39.630Z,9.719172
2024-05-09T10:56:39.623Z,9.719132
2024-05-09T10:57:39.674Z,9.719159
2024-05-09T10:58:39.618Z,9.719165
2024-05-09T10:59:39.616Z,9.719127
2024-05-09T11:00:39.657Z,9.719073
2024-05-09T11:01:39.684Z,9.719218
2024-05-09T11:02:39.803Z,9.719233
2024-05-09T11:03:39.981Z,9.719261
2024-05-09T11:04:39.628Z,9.719234
2024-05-09T11:05:39.603Z,9.719340
2024-05-09T11:06:39.591Z,9.719205
2024-05-09T11:07:39.522Z,9.719187
2024-05-09T11:08:39.553Z,9.719654
2024-05-09T11:09:39.551Z,9.719439
2024-05-09T11:10:39.629Z,9.719494
2024-05-09T11:11:39.510Z,9.719602
2024-05-09T11:12:39.537Z,9.719740
2024-05-09T11:13:39.454Z,9.719572
2024-05-09T11:14:39.461Z,9.719223
2024-05-09T11:15:39.524Z,9.719126
2024-05-09T11:16:39.447Z,9.718960
2024-05-09T11:17:39.457Z,9.719257
2024-05-09T11:18:39.783Z,9.719417
2024-05-09T11:19:39.501Z,9.719637
2024-05-09T11:20:39.499Z,9.719530
2024-05-09T11:21:39.432Z,9.719625
2024-05-09T11:22:39.387Z,9.719593
2024-05-09T11:23:39.356Z,9.719471
2024-05-09T11:24:39.387Z,9.719430
2024-05-09T11:25:39.335Z,9.719182
2024-05-09T11:26:39.367Z,9.719280
2024-05-09T11:27:39.463Z,9.719521
2024-05-09T11:28:39.329Z,9.719431
2024-05-09T11:29:39.331Z,9.719517
2024-05-09T11:30:39.339Z,9.719535
2024-05-09T11:31:39.340Z,9.719426
2024-05-09T11:32:39.367Z,9.719395
2024-05-09T11:33:39.617Z,9.719359
2024-05-09T11:34:39.321Z,9.719417
2024-05-09T11:35:39.248Z,9.719322
2024-05-09T11:36:39.318Z,9.719332
2024-05-09T11:37:39.229Z,9.719255
2024-05-09T11:38:39.199Z,9.719257
2024-05-09T11:39:39.240Z,9.719238
2024-05-09T11:40:39.253Z,9.719226
2024-05-09T11:41:39.182Z,9.719263
2024-05-09T11:42:39.222Z,9.719196
2024-05-09T11:43:39.159Z,9.719168
2024-05-09T11:44:39.155Z,9.719178
2024-05-09T11:45:39.193Z,9.719259
2024-05-09T11:46:39.153Z,9.719235
2024-05-09T11:47:39.241Z,9.719125
2024-05-09T11:48:39.295Z,9.719189